createdAt,value
2019-03-30T00:02:35.868Z,101755.02
2019-03-30T00:05:05.365Z,101757.59
2019-03-30T00:07:33.762Z,101756.36
2019-03-30T00:10:02.229Z,101755.83
2019-03-30T00:12:30.624Z,101747.31
2019-03-30T00:14:59.127Z,101751.42
2019-03-30T00:17:27.535Z,101744.83
2019-03-30T00:19:55.963Z,101741.80
2019-03-30T00:22:24.368Z,101743.04
2019-03-30T00:24:52.764Z,101740.78
2019-03-30T00:27:21.248Z,101743.69
2019-03-30T00:29:49.636Z,101744.09
2019-03-30T00:32:18.056Z,101742.89
2019-03-30T00:34:46.485Z,101741.20
2019-03-30T00:37:14.976Z,101738.20
2019-03-30T00:39:43.448Z,101735.89
2019-03-30T00:42:11.847Z,101732.64
2019-03-30T00:44:40.245Z,101737.36
2019-03-30T00:47:08.644Z,101730.41
2019-03-30T00:49:48.384Z,101735.14
2019-03-30T00:52:07.182Z,101728.83
2019-03-30T00:54:35.671Z,101732.30
2019-03-30T00:57:04.077Z,101732.21
2019-03-30T00:59:32.491Z,101730.64
2019-03-30T01:02:00.947Z,101728.91
2019-03-30T01:04:29.349Z,101726.03
2019-03-30T01:06:57.774Z,101724.87
2019-03-30T01:09:26.173Z,101721.75
2019-03-30T01:11:54.574Z,101717.97
2019-03-30T01:14:23.081Z,101713.73
2019-03-30T01:16:51.528Z,101705.52
2019-03-30T01:19:19.940Z,101710.11
2019-03-30T01:21:48.363Z,101714.34
2019-03-30T01:24:16.885Z,101698.13
2019-03-30T01:26:45.351Z,101704.44
2019-03-30T01:29:13.892Z,101701.08
2019-03-30T01:31:42.297Z,101699.53
2019-03-30T01:34:10.694Z,101699.30
2019-03-30T01:36:39.148Z,101697.68
2019-03-30T01:39:08.273Z,101697.56
2019-03-30T01:41:36.808Z,101696.59
2019-03-30T01:44:05.288Z,101695.78
2019-03-30T01:46:33.868Z,101694.91
2019-03-30T01:49:02.265Z,101682.02
2019-03-30T01:51:30.653Z,101684.25
2019-03-30T01:53:59.142Z,101684.72
2019-03-30T01:56:27.530Z,101685.47
2019-03-30T01:58:55.948Z,101684.73
2019-03-30T02:01:24.352Z,101677.19
2019-03-30T02:03:52.794Z,101671.71
2019-03-30T02:06:21.179Z,101669.97
2019-03-30T02:08:49.575Z,101671.94
2019-03-30T02:11:18.059Z,101668.94
2019-03-30T02:13:46.518Z,101667.08
2019-03-30T02:16:14.842Z,101669.91
2019-03-30T02:18:43.273Z,101663.78
2019-03-30T02:21:11.694Z,101665.98
2019-03-30T02:23:40.100Z,101665.52
2019-03-30T02:26:08.485Z,101662.34
2019-03-30T02:28:36.882Z,101658.16
2019-03-30T02:31:05.368Z,101660.60
2019-03-30T02:33:33.766Z,101665.79
2019-03-30T02:36:02.270Z,101658.68
2019-03-30T02:38:30.734Z,101659.20
2019-03-30T02:40:59.132Z,101658.40
2019-03-30T02:43:27.537Z,101655.39
2019-03-30T02:45:56.062Z,101653.25
2019-03-30T02:48:24.452Z,101652.41
2019-03-30T02:50:52.848Z,101654.22
2019-03-30T02:53:21.275Z,101656.36
2019-03-30T02:55:49.730Z,101661.06
2019-03-30T02:58:18.225Z,101656.50
2019-03-30T03:00:46.640Z,101653.72
2019-03-30T03:03:15.186Z,101652.11
2019-03-30T03:05:43.570Z,101652.44
2019-03-30T03:08:11.979Z,101648.34
2019-03-30T03:10:40.466Z,101642.77
2019-03-30T03:13:08.865Z,101643.56
2019-03-30T03:15:37.329Z,101638.70
2019-03-30T03:18:05.744Z,101643.17
2019-03-30T03:20:34.233Z,101637.55
2019-03-30T03:23:02.635Z,101633.02
2019-03-30T03:25:31.055Z,101639.80
2019-03-30T03:27:59.545Z,101634.51
2019-03-30T03:30:27.970Z,101636.47
2019-03-30T03:32:56.379Z,101637.06
2019-03-30T03:35:24.806Z,101632.58
2019-03-30T03:37:53.215Z,101628.30
2019-03-30T03:40:21.715Z,101636.33
2019-03-30T03:42:50.135Z,101628.97
2019-03-30T03:45:18.600Z,101623.89
2019-03-30T03:47:47.018Z,101622.73
2019-03-30T03:50:27.311Z,101622.00
2019-03-30T03:52:55.866Z,101618.52
2019-03-30T03:55:24.805Z,101619.60
2019-03-30T03:57:54.080Z,101614.56
2019-03-30T04:00:22.639Z,101606.00
2019-03-30T04:02:52.963Z,101611.95
2019-03-30T04:05:24.148Z,101605.06
2019-03-30T04:07:54.256Z,101603.06
2019-03-30T04:10:25.727Z,101602.42
2019-03-30T04:12:57.295Z,101598.88
2019-03-30T04:15:25.910Z,101600.02
2019-03-30T04:17:54.345Z,101589.33
2019-03-30T04:20:25.675Z,101591.50
2019-03-30T04:22:54.843Z,101583.75
2019-03-30T04:25:23.686Z,101589.83
2019-03-30T04:27:52.082Z,101592.03
2019-03-30T04:30:20.542Z,101591.94
2019-03-30T04:32:49.049Z,101590.40
2019-03-30T04:35:17.537Z,101581.91
2019-03-30T04:37:45.940Z,101581.84
2019-03-30T04:40:14.337Z,101584.52
2019-03-30T04:42:42.776Z,101583.91
2019-03-30T04:45:11.415Z,101580.03
2019-03-30T04:47:39.885Z,101583.25
2019-03-30T04:50:08.555Z,101576.83
2019-03-30T04:52:36.987Z,101579.44
2019-03-30T04:55:06.627Z,101576.86
2019-03-30T04:57:35.050Z,101569.70
2019-03-30T05:00:04.799Z,101572.84
2019-03-30T05:02:33.203Z,101571.05
2019-03-30T05:05:01.613Z,101574.05
2019-03-30T05:07:30.025Z,101567.81
2019-03-30T05:09:58.519Z,101566.54
2019-03-30T05:12:26.922Z,101564.27
2019-03-30T05:14:55.386Z,101559.52
2019-03-30T05:17:23.808Z,101561.86
2019-03-30T05:19:52.219Z,101556.72
2019-03-30T05:22:20.710Z,101555.73
2019-03-30T05:24:49.143Z,101559.81
2019-03-30T05:27:19.035Z,101567.50
2019-03-30T05:29:47.497Z,101560.13
2019-03-30T05:32:15.973Z,101566.61
2019-03-30T05:34:44.399Z,101563.16
2019-03-30T05:37:12.826Z,101555.45
2019-03-30T05:39:41.236Z,101567.10
2019-03-30T05:42:09.690Z,101558.41
2019-03-30T05:44:38.088Z,101559.27
2019-03-30T05:47:06.585Z,101563.01
2019-03-30T05:49:34.988Z,101556.99
2019-03-30T05:52:03.431Z,101555.39
2019-03-30T05:54:31.840Z,101548.31
2019-03-30T05:57:00.265Z,101549.58
2019-03-30T05:59:28.706Z,101545.58
2019-03-30T06:01:57.115Z,101540.54
2019-03-30T06:04:25.662Z,101535.02
2019-03-30T06:06:54.081Z,101533.81
2019-03-30T06:09:22.526Z,101529.45
2019-03-30T06:11:50.933Z,101533.80
2019-03-30T06:14:19.358Z,101532.66
2019-03-30T06:16:47.846Z,101532.88
2019-03-30T06:19:16.237Z,101533.74
2019-03-30T06:21:44.691Z,101541.75
2019-03-30T06:24:13.103Z,101027.11
2019-03-30T06:26:41.546Z,101533.85
2019-03-30T06:29:09.949Z,101540.23
2019-03-30T06:31:38.338Z,101533.62
2019-03-30T06:34:06.777Z,101534.13
2019-03-30T06:36:35.173Z,101533.67
2019-03-30T06:39:04.540Z,101533.37
2019-03-30T06:41:32.975Z,101532.94
2019-03-30T06:44:01.390Z,101537.56
2019-03-30T06:46:29.826Z,101532.84
2019-03-30T06:48:58.228Z,101534.19
2019-03-30T06:51:26.645Z,101536.39
2019-03-30T06:53:55.123Z,101535.73
2019-03-30T06:56:23.617Z,101541.86
2019-03-30T06:58:52.063Z,101545.58
2019-03-30T07:01:20.952Z,101538.61
2019-03-30T07:03:49.717Z,101540.70
2019-03-30T07:06:19.153Z,101541.26
2019-03-30T07:08:50.354Z,101544.72
2019-03-30T07:11:21.554Z,101545.94
2019-03-30T07:13:52.627Z,101540.26
2019-03-30T07:16:21.183Z,101542.20
2019-03-30T07:18:51.848Z,101548.56
2019-03-30T07:21:20.293Z,101542.83
2019-03-30T07:23:48.771Z,101545.53
2019-03-30T07:26:17.219Z,101544.91
2019-03-30T07:28:47.324Z,101546.41
2019-03-30T07:31:15.961Z,101539.60
2019-03-30T07:33:44.405Z,101541.20
2019-03-30T07:36:12.804Z,101540.92
2019-03-30T07:38:41.220Z,101540.46
2019-03-30T07:41:10.640Z,101530.52
2019-03-30T07:43:39.074Z,101533.45
2019-03-30T07:46:07.656Z,101527.33
2019-03-30T07:48:36.210Z,101536.57
2019-03-30T07:51:04.627Z,101535.45
2019-03-30T07:53:43.941Z,101533.23
2019-03-30T07:56:08.595Z,101537.36
2019-03-30T07:58:33.633Z,101527.68
2019-03-30T08:01:02.114Z,101533.33
2019-03-30T08:03:30.717Z,101533.12
2019-03-30T08:05:59.583Z,101536.75
2019-03-30T08:08:27.977Z,101531.22
2019-03-30T08:10:56.670Z,101530.92
2019-03-30T08:13:25.164Z,101525.94
2019-03-30T08:15:53.599Z,101528.73
2019-03-30T08:18:22.003Z,101521.11
2019-03-30T08:20:50.448Z,101518.67
2019-03-30T08:23:18.862Z,101522.73
2019-03-30T08:25:47.262Z,101520.17
2019-03-30T08:28:15.699Z,101532.14
2019-03-30T08:30:44.139Z,101528.60
2019-03-30T08:33:12.557Z,101539.36
2019-03-30T08:35:40.960Z,101536.77
2019-03-30T08:38:10.916Z,101537.67
2019-03-30T08:40:39.319Z,101540.83
2019-03-30T08:43:07.730Z,101548.09
2019-03-30T08:45:36.194Z,101547.30
2019-03-30T08:48:04.717Z,101534.79
2019-03-30T08:50:33.207Z,101539.84
2019-03-30T08:53:01.662Z,101532.16
2019-03-30T08:55:30.113Z,101533.85
2019-03-30T08:57:58.529Z,101524.48
2019-03-30T09:00:37.856Z,101520.16
2019-03-30T09:03:06.410Z,101525.63
2019-03-30T09:05:34.913Z,101520.96
2019-03-30T09:08:03.359Z,101521.79
2019-03-30T09:10:31.768Z,101514.49
2019-03-30T09:13:00.192Z,101522.69
2019-03-30T09:15:28.624Z,101522.02
2019-03-30T09:17:57.023Z,101521.74
2019-03-30T09:20:25.526Z,101523.28
2019-03-30T09:22:54.002Z,101518.86
2019-03-30T09:25:22.387Z,101186.36
2019-03-30T09:27:50.813Z,101510.86
2019-03-30T09:30:19.299Z,101513.08
2019-03-30T09:32:47.720Z,101504.90
2019-03-30T09:35:16.280Z,101501.07
2019-03-30T09:37:44.766Z,101500.12
2019-03-30T09:40:13.534Z,101498.83
2019-03-30T09:42:41.931Z,101494.43
2019-03-30T09:45:10.600Z,101493.54
2019-03-30T09:47:39.027Z,101488.23
2019-03-30T09:50:08.574Z,101479.06
2019-03-30T09:52:36.999Z,101481.58
2019-03-30T09:55:07.140Z,101480.06
2019-03-30T09:57:35.627Z,101475.20
2019-03-30T10:00:05.385Z,101479.22
2019-03-30T10:02:33.804Z,101477.91
2019-03-30T10:05:02.216Z,101478.02
2019-03-30T10:07:30.710Z,101469.61
2019-03-30T10:09:59.142Z,101474.23
2019-03-30T10:12:27.591Z,101475.13
2019-03-30T10:14:56.027Z,101477.94
2019-03-30T10:17:24.444Z,101474.73
2019-03-30T10:20:03.653Z,101472.78
2019-03-30T10:22:23.026Z,101467.59
2019-03-30T10:24:51.453Z,101471.91
2019-03-30T10:27:19.898Z,101467.30
2019-03-30T10:29:48.379Z,101459.95
2019-03-30T10:32:16.783Z,101461.31
2019-03-30T10:34:45.357Z,101460.16
2019-03-30T10:37:13.790Z,101453.00
2019-03-30T10:39:42.197Z,101451.25
2019-03-30T10:42:10.645Z,101447.01
2019-03-30T10:44:39.040Z,101454.97
2019-03-30T10:47:07.462Z,101447.23
2019-03-30T10:49:35.882Z,101435.29
2019-03-30T10:52:04.351Z,101447.77
2019-03-30T10:54:32.778Z,101435.27
2019-03-30T10:57:01.203Z,101444.73
2019-03-30T10:59:29.613Z,101430.58
2019-03-30T11:01:58.028Z,101434.02
2019-03-30T11:04:26.449Z,101433.30
2019-03-30T11:06:54.862Z,101430.71
2019-03-30T11:09:23.281Z,101434.65
2019-03-30T11:11:51.730Z,101427.34
2019-03-30T11:14:20.111Z,101424.69
2019-03-30T11:16:48.551Z,101438.19
2019-03-30T11:19:16.961Z,101423.09
2019-03-30T11:21:45.372Z,101425.25
2019-03-30T11:24:13.839Z,101409.38
2019-03-30T11:26:42.240Z,101418.42
2019-03-30T11:29:10.670Z,101418.45
2019-03-30T11:31:39.074Z,101415.44
2019-03-30T11:34:07.557Z,101412.46
2019-03-30T11:36:36.233Z,101411.14
2019-03-30T11:39:06.188Z,101416.30
2019-03-30T11:41:34.625Z,101405.94
2019-03-30T11:44:03.164Z,101407.23
2019-03-30T11:46:31.575Z,101408.52
2019-03-30T11:49:00.010Z,101399.95
2019-03-30T11:51:28.412Z,101396.94
2019-03-30T11:53:56.889Z,101387.94
2019-03-30T11:56:25.338Z,101392.64
2019-03-30T11:58:53.741Z,101393.09
2019-03-30T12:01:22.150Z,101390.50
2019-03-30T12:03:50.567Z,101385.39
2019-03-30T12:06:19.041Z,101388.41
2019-03-30T12:08:47.474Z,101382.37
2019-03-30T12:11:15.873Z,101384.48
2019-03-30T12:13:44.363Z,101380.20
2019-03-30T12:16:12.857Z,101381.91
2019-03-30T12:18:41.265Z,101376.31
2019-03-30T12:21:09.868Z,101363.80
2019-03-30T12:23:38.291Z,101368.11
2019-03-30T12:26:06.710Z,101367.67
2019-03-30T12:28:35.114Z,101371.95
2019-03-30T12:31:03.694Z,101368.36
2019-03-30T12:33:32.103Z,101367.88
2019-03-30T12:36:00.518Z,101363.52
2019-03-30T12:38:28.949Z,101359.09
2019-03-30T12:40:57.403Z,101344.30
2019-03-30T12:43:25.923Z,101356.21
2019-03-30T12:45:54.347Z,101359.01
2019-03-30T12:48:22.756Z,101350.09
2019-03-30T12:50:51.185Z,101349.32
2019-03-30T12:53:19.677Z,101343.38
2019-03-30T12:55:49.445Z,101335.20
2019-03-30T12:58:18.207Z,101334.15
2019-03-30T13:00:46.622Z,101330.47
2019-03-30T13:03:15.108Z,101322.05
2019-03-30T13:05:43.503Z,101335.86
2019-03-30T13:08:11.905Z,101335.11
2019-03-30T13:10:40.358Z,101327.84
2019-03-30T13:13:08.758Z,101331.80
2019-03-30T13:15:37.324Z,101328.70
2019-03-30T13:18:05.809Z,101324.13
2019-03-30T13:20:34.229Z,101322.15
2019-03-30T13:23:02.642Z,101331.56
2019-03-30T13:25:31.044Z,101329.09
2019-03-30T13:27:59.471Z,101329.09
2019-03-30T13:30:27.876Z,101330.27
2019-03-30T13:32:56.293Z,101324.05
2019-03-30T13:35:24.703Z,101323.74
2019-03-30T13:37:53.102Z,101324.05
2019-03-30T13:40:21.505Z,101327.73
2019-03-30T13:42:49.908Z,101323.74
2019-03-30T13:45:18.477Z,101329.51
2019-03-30T13:47:46.890Z,101318.88
2019-03-30T13:50:15.545Z,101317.45
2019-03-30T13:52:43.950Z,101317.27
2019-03-30T13:55:12.443Z,101311.69
2019-03-30T13:57:40.842Z,101315.11
2019-03-30T14:00:09.886Z,101315.91
2019-03-30T14:02:38.392Z,101305.09
2019-03-30T14:05:07.234Z,101301.89
2019-03-30T14:07:35.686Z,101301.03
2019-03-30T14:10:07.198Z,101292.89
2019-03-30T14:12:35.595Z,101300.12
2019-03-30T14:15:04.746Z,101296.15
2019-03-30T14:17:33.174Z,101297.87
2019-03-30T14:20:01.573Z,101298.78
2019-03-30T14:22:30.170Z,101295.77
2019-03-30T14:24:58.596Z,101292.08
2019-03-30T14:27:26.997Z,101289.51
2019-03-30T14:29:55.403Z,101293.88
2019-03-30T14:32:23.818Z,101293.02
2019-03-30T14:34:52.250Z,101289.48
2019-03-30T14:37:20.726Z,101285.89
2019-03-30T14:39:49.182Z,101278.08
2019-03-30T14:42:17.666Z,101280.67
2019-03-30T14:44:46.080Z,101274.87
2019-03-30T14:47:14.622Z,101271.74
2019-03-30T14:49:43.026Z,101278.19
2019-03-30T14:52:11.460Z,101270.47
2019-03-30T14:54:52.095Z,101274.34
2019-03-30T14:57:10.010Z,101273.66
2019-03-30T14:59:38.419Z,101262.09
2019-03-30T15:02:06.922Z,101264.72
2019-03-30T15:04:35.349Z,101264.94
2019-03-30T15:07:03.844Z,101263.61
2019-03-30T15:09:32.287Z,101261.38
2019-03-30T15:12:00.695Z,101268.91
2019-03-30T15:14:29.172Z,101263.39
2019-03-30T15:16:57.630Z,101262.59
2019-03-30T15:19:26.075Z,101255.78
2019-03-30T15:21:54.495Z,101259.70
2019-03-30T15:24:22.890Z,101261.47
2019-03-30T15:26:59.875Z,101256.31
2019-03-30T15:29:21.483Z,101252.72
2019-03-30T15:31:49.882Z,101250.94
2019-03-30T15:34:18.305Z,101258.79
2019-03-30T15:36:46.737Z,101249.81
2019-03-30T15:39:15.127Z,101252.91
2019-03-30T15:41:43.537Z,101243.45
2019-03-30T15:44:11.959Z,101244.47
2019-03-30T15:46:40.427Z,101246.16
2019-03-30T15:49:09.796Z,101245.17
2019-03-30T15:51:38.533Z,101244.44
2019-03-30T15:54:06.948Z,101244.40
2019-03-30T15:56:35.423Z,101243.48
2019-03-30T15:59:03.850Z,101249.88
2019-03-30T16:01:32.333Z,101244.84
2019-03-30T16:04:02.531Z,101245.05
2019-03-30T16:06:30.993Z,101248.66
2019-03-30T16:08:59.423Z,101246.00
2019-03-30T16:11:27.829Z,101250.44
2019-03-30T16:13:56.349Z,101238.38
2019-03-30T16:16:24.761Z,101243.51
2019-03-30T16:18:53.168Z,101241.30
2019-03-30T16:21:21.591Z,101245.20
2019-03-30T16:23:50.065Z,101242.97
2019-03-30T16:26:18.635Z,101238.66
2019-03-30T16:28:48.577Z,101240.75
2019-03-30T16:31:17.133Z,101239.87
2019-03-30T16:33:47.050Z,101241.34
2019-03-30T16:36:15.553Z,101242.23
2019-03-30T16:38:43.977Z,101241.87
2019-03-30T16:41:12.391Z,101242.81
2019-03-30T16:43:40.788Z,101241.56
2019-03-30T16:46:09.231Z,101243.39
2019-03-30T16:48:37.659Z,101246.91
2019-03-30T16:51:06.072Z,101245.27
2019-03-30T16:53:34.510Z,101245.31
2019-03-30T16:56:03.217Z,101249.19
2019-03-30T16:58:31.666Z,101249.15
2019-03-30T17:01:00.154Z,101243.97
2019-03-30T17:03:28.618Z,101246.59
2019-03-30T17:05:57.030Z,101242.71
2019-03-30T17:08:25.439Z,101241.88
2019-03-30T17:10:53.882Z,101248.34
2019-03-30T17:13:22.280Z,101239.79
2019-03-30T17:15:50.724Z,101242.02
2019-03-30T17:18:19.150Z,101245.92
2019-03-30T17:20:47.546Z,101244.63
2019-03-30T17:23:16.052Z,101240.81
2019-03-30T17:25:44.458Z,101242.56
2019-03-30T17:28:12.928Z,101243.05
2019-03-30T17:30:41.412Z,101239.20
2019-03-30T17:33:09.825Z,101238.37
2019-03-30T17:35:38.349Z,101239.73
2019-03-30T17:38:06.881Z,101242.80
2019-03-30T17:40:35.336Z,101242.41
2019-03-30T17:43:03.855Z,101244.14
2019-03-30T17:45:32.356Z,101243.31
2019-03-30T17:48:00.905Z,101252.41
2019-03-30T17:50:31.996Z,101249.45
2019-03-30T17:53:00.430Z,101250.34
2019-03-30T17:55:33.930Z,101250.78
2019-03-30T17:58:12.394Z,101251.70
2019-03-30T18:00:29.291Z,101257.77
2019-03-30T18:02:57.814Z,101265.17
2019-03-30T18:05:26.231Z,101261.75
2019-03-30T18:07:54.668Z,101263.91
2019-03-30T18:10:23.083Z,101267.84
2019-03-30T18:12:51.511Z,101265.69
2019-03-30T18:15:19.999Z,101266.98
2019-03-30T18:17:48.486Z,101263.13
2019-03-30T18:20:17.377Z,101266.16
2019-03-30T18:22:45.764Z,101270.02
2019-03-30T18:25:15.775Z,101273.05
2019-03-30T18:27:44.286Z,101271.77
2019-03-30T18:30:13.646Z,101273.04
2019-03-30T18:32:42.537Z,101272.61
2019-03-30T18:35:11.179Z,101273.91
2019-03-30T18:37:39.697Z,101285.05
2019-03-30T18:40:08.470Z,101288.88
2019-03-30T18:42:36.903Z,101290.56
2019-03-30T18:45:07.019Z,101293.09
2019-03-30T18:47:35.455Z,101293.09
2019-03-30T18:50:05.607Z,101293.95
2019-03-30T18:52:34.471Z,101303.39
2019-03-30T18:55:02.971Z,101303.78
2019-03-30T18:57:31.461Z,101307.21
2019-03-30T18:59:59.873Z,101311.87
2019-03-30T19:02:28.411Z,101312.72
2019-03-30T19:04:56.803Z,101317.00
2019-03-30T19:07:25.210Z,101315.64
2019-03-30T19:09:53.628Z,101313.47
2019-03-30T19:12:22.066Z,101318.65
2019-03-30T19:14:50.489Z,101315.20
2019-03-30T19:17:19.022Z,101321.66
2019-03-30T19:19:50.111Z,101320.70
2019-03-30T19:22:17.563Z,101318.42
2019-03-30T19:24:46.023Z,101316.30
2019-03-30T19:27:14.427Z,101320.59
2019-03-30T19:29:42.882Z,101317.98
2019-03-30T19:32:11.380Z,101315.81
2019-03-30T19:34:39.810Z,101321.38
2019-03-30T19:37:08.223Z,101324.27
2019-03-30T19:39:36.748Z,101319.98
2019-03-30T19:42:05.321Z,101320.34
2019-03-30T19:44:34.265Z,101318.09
2019-03-30T19:47:02.661Z,101325.44
2019-03-30T19:49:31.170Z,101317.22
2019-03-30T19:51:59.586Z,101317.29
2019-03-30T19:54:28.034Z,101316.45
2019-03-30T19:56:56.438Z,101315.81
2019-03-30T19:59:24.846Z,101322.22
2019-03-30T20:01:53.417Z,101331.01
2019-03-30T20:04:21.846Z,101332.80
2019-03-30T20:06:50.290Z,101323.52
2019-03-30T20:09:20.888Z,101327.07
2019-03-30T20:11:48.911Z,101327.92
2019-03-30T20:14:17.480Z,101326.01
2019-03-30T20:16:45.882Z,101326.52
2019-03-30T20:19:14.377Z,101327.89
2019-03-30T20:21:42.790Z,101327.36
2019-03-30T20:24:11.198Z,101329.45
2019-03-30T20:26:39.633Z,101327.77
2019-03-30T20:29:08.062Z,101333.27
2019-03-30T20:31:36.557Z,101332.70
2019-03-30T20:34:05.339Z,101331.46
2019-03-30T20:36:35.352Z,101328.03
2019-03-30T20:39:08.103Z,101327.95
2019-03-30T20:41:35.529Z,101326.05
2019-03-30T20:44:04.010Z,101326.62
2019-03-30T20:46:32.517Z,101327.61
2019-03-30T20:49:00.927Z,101326.27
2019-03-30T20:51:29.350Z,101330.82
2019-03-30T20:53:57.802Z,101335.65
2019-03-30T20:56:26.233Z,101331.02
2019-03-30T20:58:54.648Z,101328.19
2019-03-30T21:01:23.117Z,101337.38
2019-03-30T21:03:51.557Z,101339.94
2019-03-30T21:06:19.967Z,101337.73
2019-03-30T21:08:48.380Z,101335.97
2019-03-30T21:11:16.810Z,101343.52
2019-03-30T21:13:45.230Z,101335.75
2019-03-30T21:16:13.727Z,101333.25
2019-03-30T21:18:42.135Z,101331.09
2019-03-30T21:21:10.561Z,101333.01
2019-03-30T21:23:38.990Z,101339.30
2019-03-30T21:26:07.494Z,101336.98
2019-03-30T21:28:35.939Z,101340.28
2019-03-30T21:31:04.424Z,101336.05
2019-03-30T21:33:32.907Z,101345.17
2019-03-30T21:36:01.347Z,101341.86
2019-03-30T21:38:29.756Z,101339.20
2019-03-30T21:40:58.294Z,101343.64
2019-03-30T21:43:26.753Z,101340.88
2019-03-30T21:45:55.165Z,101332.44
2019-03-30T21:48:23.728Z,101333.02
2019-03-30T21:50:52.136Z,101335.77
2019-03-30T21:53:20.663Z,101338.09
2019-03-30T21:55:49.168Z,101332.86
2019-03-30T21:58:17.567Z,101333.23
2019-03-30T22:00:46.085Z,101346.64
2019-03-30T22:03:14.513Z,101349.73
2019-03-30T22:05:42.951Z,101341.82
2019-03-30T22:08:11.411Z,101336.86
2019-03-30T22:10:39.855Z,101346.86
2019-03-30T22:13:08.291Z,101349.12
2019-03-30T22:15:36.765Z,101351.04
2019-03-30T22:18:05.322Z,101349.17
2019-03-30T22:20:33.879Z,101349.03
2019-03-30T22:23:02.303Z,101352.51
2019-03-30T22:25:30.727Z,101347.22
2019-03-30T22:27:59.142Z,101341.43
2019-03-30T22:30:27.765Z,101342.37
2019-03-30T22:32:56.195Z,101342.63
2019-03-30T22:35:24.680Z,101348.97
2019-03-30T22:37:53.157Z,101345.06
2019-03-30T22:40:21.590Z,101347.62
2019-03-30T22:42:50.041Z,101348.55
2019-03-30T22:45:18.462Z,101350.87
2019-03-30T22:47:46.959Z,101348.60
2019-03-30T22:50:15.593Z,101349.47
2019-03-30T22:52:44.030Z,101347.18
2019-03-30T22:55:12.588Z,101350.37
2019-03-30T22:57:41.080Z,101351.92
2019-03-30T23:00:12.003Z,101352.75
2019-03-30T23:02:40.639Z,101360.66
2019-03-30T23:05:09.208Z,101347.38
2019-03-30T23:07:37.623Z,101355.86
2019-03-30T23:10:07.093Z,101355.55
2019-03-30T23:12:35.498Z,101357.94
2019-03-30T23:15:04.457Z,101358.25
2019-03-30T23:17:32.964Z,101353.38
2019-03-30T23:20:01.408Z,101358.63
2019-03-30T23:22:29.817Z,101361.39
2019-03-30T23:24:58.264Z,101362.15
2019-03-30T23:27:26.682Z,101365.44
2019-03-30T23:29:55.184Z,101357.66
2019-03-30T23:32:23.761Z,101352.53
2019-03-30T23:34:52.194Z,101353.66
2019-03-30T23:37:20.617Z,101356.41
2019-03-30T23:39:49.056Z,101353.88
2019-03-30T23:42:17.475Z,101355.64
2019-03-30T23:44:45.885Z,101358.73
2019-03-30T23:47:14.296Z,101356.83
2019-03-30T23:49:42.797Z,101353.52
2019-03-30T23:52:11.220Z,101352.06
2019-03-30T23:54:39.661Z,101341.77
2019-03-30T23:57:08.252Z,101345.84
2019-03-30T23:59:36.686Z,101348.32
